sensor_id;sensor_type;location;lat;lon;timestamp;P1;durP1;ratioP1;P2;durP2;ratioP2
36593;SDS011;22603;47.900;8.146;2023-04-09T00:00:05;21.20;;;9.37;;
36593;SDS011;22603;47.900;8.146;2023-04-09T00:02:54;23.27;;;8.97;;
36593;SDS011;22603;47.900;8.146;2023-04-09T00:05:41;19.53;;;8.53;;
36593;SDS011;22603;47.900;8.146;2023-04-09T00:08:30;23.20;;;7.50;;
36593;SDS011;22603;47.900;8.146;2023-04-09T00:11:17;17.67;;;8.23;;
36593;SDS011;22603;47.900;8.146;2023-04-09T00:14:04;17.90;;;8.50;;
36593;SDS011;22603;47.900;8.146;2023-04-09T00:16:52;18.07;;;8.77;;
36593;SDS011;22603;47.900;8.146;2023-04-09T00:19:39;18.90;;;7.87;;
36593;SDS011;22603;47.900;8.146;2023-04-09T00:22:26;20.17;;;8.37;;
36593;SDS011;22603;47.900;8.146;2023-04-09T00:25:15;21.43;;;9.53;;
36593;SDS011;22603;47.900;8.146;2023-04-09T00:28:02;20.10;;;9.10;;
36593;SDS011;22603;47.900;8.146;2023-04-09T00:30:49;21.00;;;9.60;;
36593;SDS011;22603;47.900;8.146;2023-04-09T00:33:35;26.37;;;11.70;;
36593;SDS011;22603;47.900;8.146;2023-04-09T00:36:22;21.07;;;9.40;;
36593;SDS011;22603;47.900;8.146;2023-04-09T00:39:11;19.73;;;9.23;;
36593;SDS011;22603;47.900;8.146;2023-04-09T00:41:59;19.07;;;8.77;;
36593;SDS011;22603;47.900;8.146;2023-04-09T00:44:47;16.90;;;8.53;;
36593;SDS011;22603;47.900;8.146;2023-04-09T00:47:34;17.57;;;8.90;;
36593;SDS011;22603;47.900;8.146;2023-04-09T00:50:21;21.27;;;8.37;;
36593;SDS011;22603;47.900;8.146;2023-04-09T00:53:08;17.47;;;8.13;;
36593;SDS011;22603;47.900;8.146;2023-04-09T00:55:56;20.20;;;8.57;;
36593;SDS011;22603;47.900;8.146;2023-04-09T00:58:45;20.33;;;8.83;;
36593;SDS011;22603;47.900;8.146;2023-04-09T01:01:32;25.73;;;10.33;;
36593;SDS011;22603;47.900;8.146;2023-04-09T01:04:20;18.27;;;8.87;;
36593;SDS011;22603;47.900;8.146;2023-04-09T01:07:09;17.50;;;7.47;;
36593;SDS011;22603;47.900;8.146;2023-04-09T01:10:10;20.73;;;8.27;;
36593;SDS011;22603;47.900;8.146;2023-04-09T01:13:06;21.50;;;10.03;;
36593;SDS011;22603;47.900;8.146;2023-04-09T01:15:58;19.00;;;9.20;;
36593;SDS011;22603;47.900;8.146;2023-04-09T01:18:49;25.37;;;11.13;;
36593;SDS011;22603;47.900;8.146;2023-04-09T01:21:42;23.17;;;10.87;;
36593;SDS011;22603;47.900;8.146;2023-04-09T01:24:33;29.03;;;11.83;;
36593;SDS011;22603;47.900;8.146;2023-04-09T01:27:33;30.33;;;12.63;;
36593;SDS011;22603;47.900;8.146;2023-04-09T01:30:30;27.07;;;11.17;;
36593;SDS011;22603;47.900;8.146;2023-04-09T01:33:18;25.40;;;11.47;;
36593;SDS011;22603;47.900;8.146;2023-04-09T01:36:06;29.83;;;12.57;;
36593;SDS011;22603;47.900;8.146;2023-04-09T01:38:54;25.37;;;10.67;;
36593;SDS011;22603;47.900;8.146;2023-04-09T01:41:42;25.93;;;11.63;;
36593;SDS011;22603;47.900;8.146;2023-04-09T01:44:28;28.40;;;12.13;;
36593;SDS011;22603;47.900;8.146;2023-04-09T01:47:18;25.93;;;11.60;;
36593;SDS011;22603;47.900;8.146;2023-04-09T01:50:06;23.50;;;10.83;;
36593;SDS011;22603;47.900;8.146;2023-04-09T01:52:56;23.63;;;11.43;;
36593;SDS011;22603;47.900;8.146;2023-04-09T01:55:45;23.90;;;11.33;;
36593;SDS011;22603;47.900;8.146;2023-04-09T01:58:32;23.90;;;11.07;;
36593;SDS011;22603;47.900;8.146;2023-04-09T02:01:21;24.67;;;11.30;;
36593;SDS011;22603;47.900;8.146;2023-04-09T02:04:15;26.73;;;11.50;;
36593;SDS011;22603;47.900;8.146;2023-04-09T02:07:08;25.13;;;11.80;;
36593;SDS011;22603;47.900;8.146;2023-04-09T02:09:59;26.17;;;11.23;;
36593;SDS011;22603;47.900;8.146;2023-04-09T02:12:47;20.30;;;8.57;;
36593;SDS011;22603;47.900;8.146;2023-04-09T02:15:36;23.37;;;10.50;;
36593;SDS011;22603;47.900;8.146;2023-04-09T02:18:26;23.30;;;10.37;;
36593;SDS011;22603;47.900;8.146;2023-04-09T02:21:15;20.63;;;9.10;;
36593;SDS011;22603;47.900;8.146;2023-04-09T02:24:02;20.90;;;9.10;;
36593;SDS011;22603;47.900;8.146;2023-04-09T02:26:49;20.23;;;8.73;;
36593;SDS011;22603;47.900;8.146;2023-04-09T02:29:37;18.97;;;8.40;;
36593;SDS011;22603;47.900;8.146;2023-04-09T02:32:24;24.40;;;8.73;;
36593;SDS011;22603;47.900;8.146;2023-04-09T02:35:11;17.23;;;6.20;;
36593;SDS011;22603;47.900;8.146;2023-04-09T02:38:00;22.30;;;8.80;;
36593;SDS011;22603;47.900;8.146;2023-04-09T02:40:48;21.87;;;8.50;;
36593;SDS011;22603;47.900;8.146;2023-04-09T02:43:35;23.43;;;8.83;;
36593;SDS011;22603;47.900;8.146;2023-04-09T02:46:22;20.67;;;8.60;;
36593;SDS011;22603;47.900;8.146;2023-04-09T02:49:09;16.83;;;8.13;;
36593;SDS011;22603;47.900;8.146;2023-04-09T02:51:56;22.60;;;8.43;;
36593;SDS011;22603;47.900;8.146;2023-04-09T02:54:44;21.70;;;8.40;;
36593;SDS011;22603;47.900;8.146;2023-04-09T02:57:31;19.90;;;8.77;;
36593;SDS011;22603;47.900;8.146;2023-04-09T03:00:18;21.77;;;8.27;;
36593;SDS011;22603;47.900;8.146;2023-04-09T03:03:05;20.27;;;7.73;;
36593;SDS011;22603;47.900;8.146;2023-04-09T03:05:53;22.83;;;9.63;;
36593;SDS011;22603;47.900;8.146;2023-04-09T03:08:40;16.83;;;7.57;;
36593;SDS011;22603;47.900;8.146;2023-04-09T03:11:28;23.37;;;8.97;;
36593;SDS011;22603;47.900;8.146;2023-04-09T03:14:15;16.80;;;7.67;;
36593;SDS011;22603;47.900;8.146;2023-04-09T03:17:02;18.07;;;7.50;;
36593;SDS011;22603;47.900;8.146;2023-04-09T03:19:49;22.73;;;8.20;;
36593;SDS011;22603;47.900;8.146;2023-04-09T03:22:36;18.37;;;8.13;;
36593;SDS011;22603;47.900;8.146;2023-04-09T03:25:24;18.73;;;7.60;;
36593;SDS011;22603;47.900;8.146;2023-04-09T03:28:12;21.37;;;7.57;;
36593;SDS011;22603;47.900;8.146;2023-04-09T03:30:59;20.83;;;8.87;;
36593;SDS011;22603;47.900;8.146;2023-04-09T03:33:47;23.63;;;9.07;;
36593;SDS011;22603;47.900;8.146;2023-04-09T03:36:34;22.93;;;8.53;;
36593;SDS011;22603;47.900;8.146;2023-04-09T03:39:21;18.93;;;8.23;;
36593;SDS011;22603;47.900;8.146;2023-04-09T03:42:08;21.67;;;8.20;;
36593;SDS011;22603;47.900;8.146;2023-04-09T03:44:56;20.07;;;7.93;;
36593;SDS011;22603;47.900;8.146;2023-04-09T03:47:43;21.00;;;8.87;;
36593;SDS011;22603;47.900;8.146;2023-04-09T03:50:30;20.57;;;9.10;;
36593;SDS011;22603;47.900;8.146;2023-04-09T03:53:22;21.40;;;8.53;;
36593;SDS011;22603;47.900;8.146;2023-04-09T03:56:09;22.30;;;6.87;;
36593;SDS011;22603;47.900;8.146;2023-04-09T03:58:56;21.97;;;7.50;;
36593;SDS011;22603;47.900;8.146;2023-04-09T04:01:45;23.07;;;8.70;;
36593;SDS011;22603;47.900;8.146;2023-04-09T04:04:32;22.83;;;8.13;;
36593;SDS011;22603;47.900;8.146;2023-04-09T04:07:19;19.63;;;8.23;;
36593;SDS011;22603;47.900;8.146;2023-04-09T04:10:07;19.27;;;7.93;;
36593;SDS011;22603;47.900;8.146;2023-04-09T04:12:54;15.27;;;6.50;;
36593;SDS011;22603;47.900;8.146;2023-04-09T04:15:41;23.23;;;8.50;;
36593;SDS011;22603;47.900;8.146;2023-04-09T04:18:30;19.27;;;7.20;;
36593;SDS011;22603;47.900;8.146;2023-04-09T04:21:16;24.20;;;7.87;;
36593;SDS011;22603;47.900;8.146;2023-04-09T04:24:04;17.90;;;7.67;;
36593;SDS011;22603;47.900;8.146;2023-04-09T04:26:51;25.37;;;7.93;;
36593;SDS011;22603;47.900;8.146;2023-04-09T04:29:38;19.57;;;7.07;;
36593;SDS011;22603;47.900;8.146;2023-04-09T04:32:25;19.27;;;7.63;;
36593;SDS011;22603;47.900;8.146;2023-04-09T04:35:13;19.57;;;7.63;;
36593;SDS011;22603;47.900;8.146;2023-04-09T04:38:01;19.13;;;6.97;;
36593;SDS011;22603;47.900;8.146;2023-04-09T04:40:47;19.50;;;7.07;;
36593;SDS011;22603;47.900;8.146;2023-04-09T04:43:34;16.50;;;7.03;;
36593;SDS011;22603;47.900;8.146;2023-04-09T04:46:21;20.80;;;8.50;;
36593;SDS011;22603;47.900;8.146;2023-04-09T04:49:08;18.83;;;7.43;;
36593;SDS011;22603;47.900;8.146;2023-04-09T04:51:57;17.27;;;7.00;;
36593;SDS011;22603;47.900;8.146;2023-04-09T04:54:44;20.70;;;7.10;;
36593;SDS011;22603;47.900;8.146;2023-04-09T04:57:31;20.73;;;7.23;;
36593;SDS011;22603;47.900;8.146;2023-04-09T05:00:18;19.30;;;7.03;;
36593;SDS011;22603;47.900;8.146;2023-04-09T05:03:05;18.80;;;7.20;;
36593;SDS011;22603;47.900;8.146;2023-04-09T05:05:52;19.57;;;7.20;;
36593;SDS011;22603;47.900;8.146;2023-04-09T05:08:41;22.73;;;7.63;;
36593;SDS011;22603;47.900;8.146;2023-04-09T05:11:28;18.13;;;7.43;;
36593;SDS011;22603;47.900;8.146;2023-04-09T05:14:15;18.83;;;7.53;;
36593;SDS011;22603;47.900;8.146;2023-04-09T05:17:02;17.23;;;7.07;;
36593;SDS011;22603;47.900;8.146;2023-04-09T05:19:50;21.77;;;8.60;;
36593;SDS011;22603;47.900;8.146;2023-04-09T05:22:38;26.53;;;9.40;;
36593;SDS011;22603;47.900;8.146;2023-04-09T05:25:27;21.67;;;7.93;;
36593;SDS011;22603;47.900;8.146;2023-04-09T05:28:14;24.67;;;8.87;;
36593;SDS011;22603;47.900;8.146;2023-04-09T05:31:01;22.23;;;8.37;;
36593;SDS011;22603;47.900;8.146;2023-04-09T05:33:49;23.57;;;8.53;;
36593;SDS011;22603;47.900;8.146;2023-04-09T05:36:45;21.50;;;8.97;;
36593;SDS011;22603;47.900;8.146;2023-04-09T05:39:32;19.40;;;7.70;;
36593;SDS011;22603;47.900;8.146;2023-04-09T05:42:21;23.83;;;8.80;;
36593;SDS011;22603;47.900;8.146;2023-04-09T05:45:08;20.97;;;8.10;;
36593;SDS011;22603;47.900;8.146;2023-04-09T05:47:58;24.13;;;9.10;;
36593;SDS011;22603;47.900;8.146;2023-04-09T05:50:47;20.47;;;6.97;;
36593;SDS011;22603;47.900;8.146;2023-04-09T05:53:39;18.63;;;7.13;;
36593;SDS011;22603;47.900;8.146;2023-04-09T05:56:26;19.90;;;8.03;;
36593;SDS011;22603;47.900;8.146;2023-04-09T05:59:15;20.07;;;7.47;;
36593;SDS011;22603;47.900;8.146;2023-04-09T06:02:02;19.57;;;7.03;;
36593;SDS011;22603;47.900;8.146;2023-04-09T06:04:50;19.00;;;7.50;;
36593;SDS011;22603;47.900;8.146;2023-04-09T06:07:37;21.23;;;7.70;;
36593;SDS011;22603;47.900;8.146;2023-04-09T06:10:27;20.97;;;7.63;;
36593;SDS011;22603;47.900;8.146;2023-04-09T06:13:14;16.80;;;6.27;;
36593;SDS011;22603;47.900;8.146;2023-04-09T06:16:04;19.20;;;7.57;;
36593;SDS011;22603;47.900;8.146;2023-04-09T06:18:51;19.83;;;7.40;;
36593;SDS011;22603;47.900;8.146;2023-04-09T06:21:41;18.60;;;7.00;;
36593;SDS011;22603;47.900;8.146;2023-04-09T06:24:29;20.63;;;7.77;;
36593;SDS011;22603;47.900;8.146;2023-04-09T06:27:17;19.47;;;8.33;;
36593;SDS011;22603;47.900;8.146;2023-04-09T06:30:06;17.63;;;6.67;;
36593;SDS011;22603;47.900;8.146;2023-04-09T06:32:56;21.63;;;8.30;;
36593;SDS011;22603;47.900;8.146;2023-04-09T06:35:43;23.97;;;8.23;;
36593;SDS011;22603;47.900;8.146;2023-04-09T06:38:30;19.07;;;6.53;;
36593;SDS011;22603;47.900;8.146;2023-04-09T06:41:19;19.93;;;7.20;;
36593;SDS011;22603;47.900;8.146;2023-04-09T06:44:06;17.50;;;6.40;;
36593;SDS011;22603;47.900;8.146;2023-04-09T06:46:53;16.37;;;5.43;;
36593;SDS011;22603;47.900;8.146;2023-04-09T06:49:42;18.03;;;7.60;;
36593;SDS011;22603;47.900;8.146;2023-04-09T06:52:30;15.80;;;6.23;;
36593;SDS011;22603;47.900;8.146;2023-04-09T06:55:17;15.20;;;5.83;;
36593;SDS011;22603;47.900;8.146;2023-04-09T06:58:05;21.23;;;6.60;;
36593;SDS011;22603;47.900;8.146;2023-04-09T07:00:52;18.17;;;7.77;;
36593;SDS011;22603;47.900;8.146;2023-04-09T07:03:39;16.47;;;6.50;;
36593;SDS011;22603;47.900;8.146;2023-04-09T07:06:28;17.27;;;7.47;;
36593;SDS011;22603;47.900;8.146;2023-04-09T07:09:15;18.20;;;6.93;;
36593;SDS011;22603;47.900;8.146;2023-04-09T07:12:02;16.03;;;6.47;;
36593;SDS011;22603;47.900;8.146;2023-04-09T07:14:49;16.03;;;5.27;;
36593;SDS011;22603;47.900;8.146;2023-04-09T07:17:36;15.97;;;6.00;;
36593;SDS011;22603;47.900;8.146;2023-04-09T07:20:25;16.47;;;6.13;;
36593;SDS011;22603;47.900;8.146;2023-04-09T07:23:13;18.20;;;7.07;;
36593;SDS011;22603;47.900;8.146;2023-04-09T07:26:00;16.53;;;6.47;;
36593;SDS011;22603;47.900;8.146;2023-04-09T07:28:48;19.10;;;6.93;;
36593;SDS011;22603;47.900;8.146;2023-04-09T07:31:35;13.67;;;5.53;;
36593;SDS011;22603;47.900;8.146;2023-04-09T07:34:23;15.07;;;6.10;;
36593;SDS011;22603;47.900;8.146;2023-04-09T07:37:10;18.20;;;7.43;;
36593;SDS011;22603;47.900;8.146;2023-04-09T07:39:58;14.93;;;6.03;;
36593;SDS011;22603;47.900;8.146;2023-04-09T07:42:45;14.13;;;5.70;;
36593;SDS011;22603;47.900;8.146;2023-04-09T07:45:36;15.90;;;5.83;;
36593;SDS011;22603;47.900;8.146;2023-04-09T07:48:23;14.20;;;5.37;;
36593;SDS011;22603;47.900;8.146;2023-04-09T07:51:12;14.83;;;6.57;;
36593;SDS011;22603;47.900;8.146;2023-04-09T07:53:59;13.03;;;5.50;;
36593;SDS011;22603;47.900;8.146;2023-04-09T07:56:47;12.80;;;5.70;;
36593;SDS011;22603;47.900;8.146;2023-04-09T07:59:34;11.83;;;5.43;;
36593;SDS011;22603;47.900;8.146;2023-04-09T08:02:21;14.03;;;6.03;;
36593;SDS011;22603;47.900;8.146;2023-04-09T08:05:08;14.65;;;5.60;;
36593;SDS011;22603;47.900;8.146;2023-04-09T08:07:56;11.90;;;5.30;;
36593;SDS011;22603;47.900;8.146;2023-04-09T08:10:43;12.63;;;5.40;;
36593;SDS011;22603;47.900;8.146;2023-04-09T08:13:31;11.88;;;4.68;;
36593;SDS011;22603;47.900;8.146;2023-04-09T08:16:18;9.88;;;4.78;;
36593;SDS011;22603;47.900;8.146;2023-04-09T08:19:08;11.73;;;5.15;;
36593;SDS011;22603;47.900;8.146;2023-04-09T08:21:55;12.75;;;5.50;;
36593;SDS011;22603;47.900;8.146;2023-04-09T08:24:42;12.38;;;4.88;;
36593;SDS011;22603;47.900;8.146;2023-04-09T08:27:29;11.77;;;4.57;;
36593;SDS011;22603;47.900;8.146;2023-04-09T08:30:19;11.30;;;5.00;;
36593;SDS011;22603;47.900;8.146;2023-04-09T08:33:06;11.07;;;4.50;;
36593;SDS011;22603;47.900;8.146;2023-04-09T08:35:52;11.85;;;5.68;;
36593;SDS011;22603;47.900;8.146;2023-04-09T08:38:42;10.75;;;5.00;;
36593;SDS011;22603;47.900;8.146;2023-04-09T08:41:31;10.20;;;4.28;;
36593;SDS011;22603;47.900;8.146;2023-04-09T08:44:19;10.50;;;4.50;;
36593;SDS011;22603;47.900;8.146;2023-04-09T08:47:08;7.65;;;3.28;;
36593;SDS011;22603;47.900;8.146;2023-04-09T08:49:56;9.13;;;3.60;;
36593;SDS011;22603;47.900;8.146;2023-04-09T08:52:44;8.25;;;3.75;;
36593;SDS011;22603;47.900;8.146;2023-04-09T08:55:32;8.60;;;4.00;;
36593;SDS011;22603;47.900;8.146;2023-04-09T08:58:21;10.65;;;4.25;;
36593;SDS011;22603;47.900;8.146;2023-04-09T09:01:17;9.13;;;4.57;;
36593;SDS011;22603;47.900;8.146;2023-04-09T09:04:09;9.38;;;4.25;;
36593;SDS011;22603;47.900;8.146;2023-04-09T09:06:56;8.48;;;3.25;;
36593;SDS011;22603;47.900;8.146;2023-04-09T09:09:52;10.63;;;4.28;;
36593;SDS011;22603;47.900;8.146;2023-04-09T09:12:40;8.25;;;3.42;;
36593;SDS011;22603;47.900;8.146;2023-04-09T09:15:28;11.13;;;4.15;;
36593;SDS011;22603;47.900;8.146;2023-04-09T09:18:16;10.02;;;4.20;;
36593;SDS011;22603;47.900;8.146;2023-04-09T09:21:12;10.45;;;4.20;;
36593;SDS011;22603;47.900;8.146;2023-04-09T09:24:00;8.52;;;3.50;;
36593;SDS011;22603;47.900;8.146;2023-04-09T09:27:01;10.03;;;4.00;;
36593;SDS011;22603;47.900;8.146;2023-04-09T09:29:48;10.07;;;3.97;;
36593;SDS011;22603;47.900;8.146;2023-04-09T09:32:35;8.30;;;3.73;;
36593;SDS011;22603;47.900;8.146;2023-04-09T09:35:23;9.20;;;3.83;;
36593;SDS011;22603;47.900;8.146;2023-04-09T09:38:11;8.00;;;3.40;;
36593;SDS011;22603;47.900;8.146;2023-04-09T09:41:02;9.10;;;3.33;;
36593;SDS011;22603;47.900;8.146;2023-04-09T09:44:02;13.03;;;4.13;;
36593;SDS011;22603;47.900;8.146;2023-04-09T09:46:51;10.70;;;4.30;;
36593;SDS011;22603;47.900;8.146;2023-04-09T09:49:38;9.90;;;3.90;;
36593;SDS011;22603;47.900;8.146;2023-04-09T09:52:25;10.50;;;3.33;;
36593;SDS011;22603;47.900;8.146;2023-04-09T09:55:14;8.43;;;3.73;;
36593;SDS011;22603;47.900;8.146;2023-04-09T09:58:05;9.73;;;3.70;;
36593;SDS011;22603;47.900;8.146;2023-04-09T10:00:57;8.20;;;3.37;;
36593;SDS011;22603;47.900;8.146;2023-04-09T10:03:49;9.50;;;3.97;;
36593;SDS011;22603;47.900;8.146;2023-04-09T10:06:40;8.43;;;3.07;;
36593;SDS011;22603;47.900;8.146;2023-04-09T10:09:38;9.23;;;3.57;;
36593;SDS011;22603;47.900;8.146;2023-04-09T10:12:28;8.83;;;3.70;;
36593;SDS011;22603;47.900;8.146;2023-04-09T10:15:15;9.60;;;3.83;;
36593;SDS011;22603;47.900;8.146;2023-04-09T10:18:03;10.13;;;3.80;;
36593;SDS011;22603;47.900;8.146;2023-04-09T10:20:52;8.53;;;3.70;;
36593;SDS011;22603;47.900;8.146;2023-04-09T10:23:44;11.27;;;3.57;;
36593;SDS011;22603;47.900;8.146;2023-04-09T10:26:34;9.57;;;3.43;;
36593;SDS011;22603;47.900;8.146;2023-04-09T10:29:27;8.70;;;3.40;;
36593;SDS011;22603;47.900;8.146;2023-04-09T10:32:17;7.00;;;2.90;;
36593;SDS011;22603;47.900;8.146;2023-04-09T10:35:06;7.13;;;3.13;;
36593;SDS011;22603;47.900;8.146;2023-04-09T10:37:57;8.63;;;3.67;;
36593;SDS011;22603;47.900;8.146;2023-04-09T10:40:50;7.27;;;3.00;;
36593;SDS011;22603;47.900;8.146;2023-04-09T10:43:45;8.23;;;3.30;;
36593;SDS011;22603;47.900;8.146;2023-04-09T10:46:51;8.38;;;3.22;;
36593;SDS011;22603;47.900;8.146;2023-04-09T10:49:44;8.30;;;3.13;;
36593;SDS011;22603;47.900;8.146;2023-04-09T10:52:40;6.25;;;2.05;;
36593;SDS011;22603;47.900;8.146;2023-04-09T10:55:35;9.35;;;3.40;;
36593;SDS011;22603;47.900;8.146;2023-04-09T10:58:23;8.27;;;2.80;;
36593;SDS011;22603;47.900;8.146;2023-04-09T11:01:10;7.35;;;2.75;;
36593;SDS011;22603;47.900;8.146;2023-04-09T11:04:11;5.55;;;2.58;;
36593;SDS011;22603;47.900;8.146;2023-04-09T11:07:06;8.10;;;3.10;;
36593;SDS011;22603;47.900;8.146;2023-04-09T11:09:54;7.88;;;2.90;;
36593;SDS011;22603;47.900;8.146;2023-04-09T11:12:40;7.78;;;3.10;;
36593;SDS011;22603;47.900;8.146;2023-04-09T11:15:27;8.45;;;2.80;;
36593;SDS011;22603;47.900;8.146;2023-04-09T11:18:18;7.25;;;2.72;;
36593;SDS011;22603;47.900;8.146;2023-04-09T11:21:08;5.82;;;2.67;;
36593;SDS011;22603;47.900;8.146;2023-04-09T11:23:57;8.50;;;2.60;;
36593;SDS011;22603;47.900;8.146;2023-04-09T11:26:44;7.03;;;2.67;;
36593;SDS011;22603;47.900;8.146;2023-04-09T11:29:33;6.45;;;2.85;;
36593;SDS011;22603;47.900;8.146;2023-04-09T11:32:20;7.78;;;3.03;;
36593;SDS011;22603;47.900;8.146;2023-04-09T11:35:10;7.80;;;3.20;;
36593;SDS011;22603;47.900;8.146;2023-04-09T11:38:00;7.15;;;3.00;;
36593;SDS011;22603;47.900;8.146;2023-04-09T11:40:55;6.40;;;2.28;;
36593;SDS011;22603;47.900;8.146;2023-04-09T11:43:43;7.60;;;2.90;;
36593;SDS011;22603;47.900;8.146;2023-04-09T11:46:30;6.97;;;3.03;;
36593;SDS011;22603;47.900;8.146;2023-04-09T11:49:18;7.47;;;2.65;;
36593;SDS011;22603;47.900;8.146;2023-04-09T11:52:06;7.97;;;3.50;;
36593;SDS011;22603;47.900;8.146;2023-04-09T11:54:58;8.32;;;3.45;;
36593;SDS011;22603;47.900;8.146;2023-04-09T11:57:45;8.73;;;3.80;;
36593;SDS011;22603;47.900;8.146;2023-04-09T12:00:32;8.57;;;3.30;;
36593;SDS011;22603;47.900;8.146;2023-04-09T12:03:24;8.63;;;3.47;;
36593;SDS011;22603;47.900;8.146;2023-04-09T12:06:14;9.90;;;4.30;;
36593;SDS011;22603;47.900;8.146;2023-04-09T12:09:07;8.32;;;3.65;;
36593;SDS011;22603;47.900;8.146;2023-04-09T12:11:58;9.93;;;3.67;;
36593;SDS011;22603;47.900;8.146;2023-04-09T12:14:46;8.18;;;3.35;;
36593;SDS011;22603;47.900;8.146;2023-04-09T12:17:36;9.52;;;3.50;;
36593;SDS011;22603;47.900;8.146;2023-04-09T12:20:30;9.70;;;3.80;;
36593;SDS011;22603;47.900;8.146;2023-04-09T12:23:18;7.93;;;3.17;;
36593;SDS011;22603;47.900;8.146;2023-04-09T12:26:05;9.10;;;3.35;;
36593;SDS011;22603;47.900;8.146;2023-04-09T12:28:54;8.40;;;3.15;;
36593;SDS011;22603;47.900;8.146;2023-04-09T12:31:41;9.10;;;3.38;;
36593;SDS011;22603;47.900;8.146;2023-04-09T12:34:28;9.32;;;3.50;;
36593;SDS011;22603;47.900;8.146;2023-04-09T12:37:15;10.27;;;3.88;;
36593;SDS011;22603;47.900;8.146;2023-04-09T12:40:02;8.68;;;3.20;;
36593;SDS011;22603;47.900;8.146;2023-04-09T12:42:49;8.82;;;3.35;;
36593;SDS011;22603;47.900;8.146;2023-04-09T12:45:38;7.10;;;2.95;;
36593;SDS011;22603;47.900;8.146;2023-04-09T12:48:25;9.80;;;3.92;;
36593;SDS011;22603;47.900;8.146;2023-04-09T12:51:12;8.82;;;3.58;;
36593;SDS011;22603;47.900;8.146;2023-04-09T12:53:59;9.05;;;3.65;;
36593;SDS011;22603;47.900;8.146;2023-04-09T12:56:48;9.63;;;3.67;;
36593;SDS011;22603;47.900;8.146;2023-04-09T12:59:36;8.98;;;3.10;;
36593;SDS011;22603;47.900;8.146;2023-04-09T13:02:24;8.68;;;3.90;;
36593;SDS011;22603;47.900;8.146;2023-04-09T13:05:11;9.75;;;3.85;;
36593;SDS011;22603;47.900;8.146;2023-04-09T13:07:58;9.32;;;3.30;;
36593;SDS011;22603;47.900;8.146;2023-04-09T13:10:45;7.65;;;3.17;;
36593;SDS011;22603;47.900;8.146;2023-04-09T13:13:31;7.03;;;3.03;;
36593;SDS011;22603;47.900;8.146;2023-04-09T13:16:18;8.40;;;3.10;;
36593;SDS011;22603;47.900;8.146;2023-04-09T13:19:07;7.60;;;2.75;;
36593;SDS011;22603;47.900;8.146;2023-04-09T13:21:55;7.47;;;2.90;;
36593;SDS011;22603;47.900;8.146;2023-04-09T13:24:41;9.23;;;3.30;;
36593;SDS011;22603;47.900;8.146;2023-04-09T13:27:29;8.68;;;3.70;;
36593;SDS011;22603;47.900;8.146;2023-04-09T13:30:16;8.85;;;3.40;;
36593;SDS011;22603;47.900;8.146;2023-04-09T13:33:03;8.88;;;3.35;;
36593;SDS011;22603;47.900;8.146;2023-04-09T13:35:51;8.27;;;3.13;;
36593;SDS011;22603;47.900;8.146;2023-04-09T13:38:38;9.07;;;2.80;;
36593;SDS011;22603;47.900;8.146;2023-04-09T13:41:25;9.00;;;3.43;;
36593;SDS011;22603;47.900;8.146;2023-04-09T13:44:15;8.77;;;3.10;;
36593;SDS011;22603;47.900;8.146;2023-04-09T13:47:02;8.10;;;3.10;;
36593;SDS011;22603;47.900;8.146;2023-04-09T13:49:49;7.40;;;2.92;;
36593;SDS011;22603;47.900;8.146;2023-04-09T13:52:38;8.60;;;3.38;;
36593;SDS011;22603;47.900;8.146;2023-04-09T13:55:25;7.43;;;3.03;;
36593;SDS011;22603;47.900;8.146;2023-04-09T13:58:12;8.27;;;3.10;;
36593;SDS011;22603;47.900;8.146;2023-04-09T14:01:00;10.13;;;3.60;;
36593;SDS011;22603;47.900;8.146;2023-04-09T14:03:52;8.90;;;3.10;;
36593;SDS011;22603;47.900;8.146;2023-04-09T14:06:40;5.80;;;2.30;;
36593;SDS011;22603;47.900;8.146;2023-04-09T14:09:28;8.37;;;3.43;;
36593;SDS011;22603;47.900;8.146;2023-04-09T14:12:15;8.27;;;2.90;;
36593;SDS011;22603;47.900;8.146;2023-04-09T14:15:03;7.73;;;2.80;;
36593;SDS011;22603;47.900;8.146;2023-04-09T14:17:51;7.77;;;3.27;;
36593;SDS011;22603;47.900;8.146;2023-04-09T14:20:38;8.20;;;3.10;;
36593;SDS011;22603;47.900;8.146;2023-04-09T14:23:25;6.60;;;2.60;;
36593;SDS011;22603;47.900;8.146;2023-04-09T14:26:13;7.60;;;2.80;;
36593;SDS011;22603;47.900;8.146;2023-04-09T14:29:01;7.43;;;2.92;;
36593;SDS011;22603;47.900;8.146;2023-04-09T14:31:48;8.53;;;3.03;;
36593;SDS011;22603;47.900;8.146;2023-04-09T14:34:35;6.93;;;3.13;;
36593;SDS011;22603;47.900;8.146;2023-04-09T14:37:22;7.20;;;2.70;;
36593;SDS011;22603;47.900;8.146;2023-04-09T14:40:10;8.10;;;3.38;;
36593;SDS011;22603;47.900;8.146;2023-04-09T14:42:59;8.10;;;2.97;;
36593;SDS011;22603;47.900;8.146;2023-04-09T14:45:46;8.88;;;3.22;;
36593;SDS011;22603;47.900;8.146;2023-04-09T14:48:32;8.52;;;3.45;;
36593;SDS011;22603;47.900;8.146;2023-04-09T14:51:20;7.85;;;2.65;;
36593;SDS011;22603;47.900;8.146;2023-04-09T14:54:07;7.82;;;2.70;;
36593;SDS011;22603;47.900;8.146;2023-04-09T14:56:54;8.77;;;2.97;;
36593;SDS011;22603;47.900;8.146;2023-04-09T14:59:43;7.63;;;2.70;;
36593;SDS011;22603;47.900;8.146;2023-04-09T15:02:30;8.40;;;3.17;;
36593;SDS011;22603;47.900;8.146;2023-04-09T15:05:19;9.37;;;2.40;;
36593;SDS011;22603;47.900;8.146;2023-04-09T15:08:06;9.13;;;3.00;;
36593;SDS011;22603;47.900;8.146;2023-04-09T15:10:53;7.90;;;2.97;;
36593;SDS011;22603;47.900;8.146;2023-04-09T15:13:40;7.67;;;3.00;;
36593;SDS011;22603;47.900;8.146;2023-04-09T15:16:28;9.37;;;3.33;;
36593;SDS011;22603;47.900;8.146;2023-04-09T15:19:17;8.17;;;3.27;;
36593;SDS011;22603;47.900;8.146;2023-04-09T15:22:04;7.53;;;3.33;;
36593;SDS011;22603;47.900;8.146;2023-04-09T15:24:50;8.40;;;3.10;;
36593;SDS011;22603;47.900;8.146;2023-04-09T15:27:38;8.60;;;3.10;;
36593;SDS011;22603;47.900;8.146;2023-04-09T15:30:25;6.73;;;2.80;;
36593;SDS011;22603;47.900;8.146;2023-04-09T15:33:13;7.60;;;2.60;;
36593;SDS011;22603;47.900;8.146;2023-04-09T15:36:01;6.93;;;2.30;;
36593;SDS011;22603;47.900;8.146;2023-04-09T15:38:48;6.30;;;2.57;;
36593;SDS011;22603;47.900;8.146;2023-04-09T15:41:38;8.77;;;2.70;;
36593;SDS011;22603;47.900;8.146;2023-04-09T15:44:25;7.47;;;2.60;;
36593;SDS011;22603;47.900;8.146;2023-04-09T15:47:12;8.33;;;3.33;;
36593;SDS011;22603;47.900;8.146;2023-04-09T15:50:01;6.63;;;2.60;;
36593;SDS011;22603;47.900;8.146;2023-04-09T15:52:48;8.63;;;2.97;;
36593;SDS011;22603;47.900;8.146;2023-04-09T15:55:35;7.20;;;2.80;;
36593;SDS011;22603;47.900;8.146;2023-04-09T15:58:22;8.27;;;2.83;;
36593;SDS011;22603;47.900;8.146;2023-04-09T16:01:09;7.57;;;3.20;;
36593;SDS011;22603;47.900;8.146;2023-04-09T16:03:59;7.60;;;2.67;;
36593;SDS011;22603;47.900;8.146;2023-04-09T16:06:47;7.97;;;2.97;;
36593;SDS011;22603;47.900;8.146;2023-04-09T16:09:34;7.93;;;2.83;;
36593;SDS011;22603;47.900;8.146;2023-04-09T16:12:21;9.87;;;3.57;;
36593;SDS011;22603;47.900;8.146;2023-04-09T16:15:09;8.80;;;3.63;;
36593;SDS011;22603;47.900;8.146;2023-04-09T16:17:57;10.70;;;3.13;;
36593;SDS011;22603;47.900;8.146;2023-04-09T16:20:44;10.10;;;4.00;;
36593;SDS011;22603;47.900;8.146;2023-04-09T16:23:32;7.30;;;2.93;;
36593;SDS011;22603;47.900;8.146;2023-04-09T16:26:19;8.70;;;3.27;;
36593;SDS011;22603;47.900;8.146;2023-04-09T16:29:06;9.33;;;3.50;;
36593;SDS011;22603;47.900;8.146;2023-04-09T16:31:53;7.77;;;3.13;;
36593;SDS011;22603;47.900;8.146;2023-04-09T16:34:41;7.87;;;2.90;;
36593;SDS011;22603;47.900;8.146;2023-04-09T16:37:28;6.53;;;2.70;;
36593;SDS011;22603;47.900;8.146;2023-04-09T16:40:16;8.00;;;2.97;;
36593;SDS011;22603;47.900;8.146;2023-04-09T16:43:08;9.87;;;2.93;;